Time;durP1;ratioP1;P1;durP2;ratioP2;P2;SDS_P1;SDS_P2;PMS_P1;PMS_P2;Temp;Humidity;BMP_temperature;BMP_pressure;BME280_temperature;BME280_humidity;BME280_pressure;Samples;Min_cycle;Max_cycle;Signal;HPM_P1;HPM_P2
2022/06/27 00:02:16;;;;;;;4.10;3.90;;;22.90;63.40;;;;;;641431;221;26549;-74
2022/06/27 00:04:43;;;;;;;4.53;4.20;;;22.90;63.70;;;;;;646193;221;26555;-74
2022/06/27 00:07:12;;;;;;;3.47;3.28;;;22.90;63.90;;;;;;637910;221;26544;-74
2022/06/27 00:09:40;;;;;;;4.10;3.90;;;22.90;64.30;;;;;;639344;223;26571;-74
2022/06/27 00:12:08;;;;;;;4.07;3.87;;;22.80;64.20;;;;;;648605;221;26575;-74
2022/06/27 00:14:35;;;;;;;3.87;3.67;;;22.80;64.20;;;;;;650171;221;26517;-74
2022/06/27 00:17:03;;;;;;;3.83;3.62;;;22.80;64.60;;;;;;650601;220;26786;-74
2022/06/27 00:19:31;;;;;;;3.95;3.75;;;22.80;64.50;;;;;;650749;221;26581;-74
2022/06/27 00:21:57;;;;;;;3.60;3.40;;;22.80;64.90;;;;;;640569;221;27178;-73
2022/06/27 00:24:24;;;;;;;4.00;3.70;;;22.80;64.80;;;;;;650994;221;26521;-74
2022/06/27 00:26:51;;;;;;;3.90;3.70;;;22.80;64.80;;;;;;648832;221;26781;-74
2022/06/27 00:29:19;;;;;;;3.90;3.70;;;22.70;65.00;;;;;;639066;221;26542;-74
2022/06/27 00:31:46;;;;;;;3.85;3.65;;;22.70;65.20;;;;;;644050;221;26525;-73
2022/06/27 00:34:14;;;;;;;3.62;3.42;;;22.70;65.30;;;;;;638349;223;26589;-74
2022/06/27 00:36:42;;;;;;;4.12;3.83;;;22.60;65.50;;;;;;639042;223;26570;-73
2022/06/27 00:39:09;;;;;;;4.30;4.00;;;22.60;65.50;;;;;;643361;220;26531;-73
2022/06/27 00:41:36;;;;;;;4.22;3.97;;;22.60;65.60;;;;;;638672;221;26510;-73
2022/06/27 00:44:04;;;;;;;4.00;3.80;;;22.60;65.90;;;;;;647454;221;26511;-73
2022/06/27 00:46:31;;;;;;;4.37;4.00;;;22.60;66.20;;;;;;640764;221;26681;-73
2022/06/27 00:48:59;;;;;;;3.70;3.50;;;22.60;66.10;;;;;;638016;221;26539;-73
2022/06/27 00:51:27;;;;;;;4.22;4.03;;;22.60;66.60;;;;;;639099;221;26522;-73
2022/06/27 00:53:54;;;;;;;4.00;3.70;;;22.50;66.50;;;;;;639171;225;26745;-73
2022/06/27 00:56:21;;;;;;;4.15;3.85;;;22.60;66.70;;;;;;649041;221;26476;-73
2022/06/27 00:58:48;;;;;;;3.80;3.50;;;22.50;66.70;;;;;;640439;221;26788;-73
2022/06/27 01:01:16;;;;;;;4.50;4.10;;;22.50;67.00;;;;;;644949;221;26506;-73
2022/06/27 01:03:43;;;;;;;3.75;3.55;;;22.50;67.30;;;;;;641124;220;26781;-73
2022/06/27 01:06:10;;;;;;;3.83;3.62;;;22.50;67.20;;;;;;639385;222;26475;-73
2022/06/27 01:08:37;;;;;;;3.92;3.72;;;22.40;67.70;;;;;;640477;218;26775;-73
2022/06/27 01:11:04;;;;;;;3.72;3.53;;;22.40;67.70;;;;;;645583;221;26784;-73
2022/06/27 01:13:32;;;;;;;4.10;3.80;;;22.40;68.10;;;;;;639681;221;26505;-73
2022/06/27 01:16:00;;;;;;;3.87;3.67;;;22.40;68.10;;;;;;639682;221;26515;-73
2022/06/27 01:18:27;;;;;;;4.07;3.78;;;22.40;68.10;;;;;;638545;225;26526;-73
2022/06/27 01:20:54;;;;;;;4.22;3.92;;;22.40;68.30;;;;;;650610;218;26827;-73
2022/06/27 01:23:21;;;;;;;3.97;3.78;;;22.40;68.40;;;;;;642540;221;26512;-73
2022/06/27 01:25:48;;;;;;;4.20;3.95;;;22.40;68.70;;;;;;647522;221;26723;-73
2022/06/27 01:28:15;;;;;;;4.10;3.80;;;22.30;68.90;;;;;;639340;221;26531;-73
2022/06/27 01:30:43;;;;;;;4.30;4.10;;;22.30;68.80;;;;;;640909;221;26782;-73
2022/06/27 01:33:10;;;;;;;4.05;3.75;;;22.30;69.20;;;;;;638880;221;26567;-73
2022/06/27 01:35:37;;;;;;;3.90;3.70;;;22.30;69.10;;;;;;639342;221;27022;-73
2022/06/27 01:38:04;;;;;;;5.03;4.72;;;22.30;69.00;;;;;;638460;221;26530;-73
2022/06/27 01:40:32;;;;;;;4.50;4.20;;;22.30;69.30;;;;;;638310;224;26848;-73
2022/06/27 01:42:59;;;;;;;4.62;4.32;;;22.20;69.50;;;;;;638903;224;26559;-73
2022/06/27 01:45:29;;;;;;;4.50;4.20;;;22.20;69.80;;;;;;650451;220;26911;-73
2022/06/27 01:47:53;;;;;;;4.35;4.15;;;22.20;69.70;;;;;;652126;218;26573;-73
2022/06/27 01:50:20;;;;;;;4.43;4.12;;;22.20;69.70;;;;;;652174;220;26798;-73
2022/06/27 01:52:48;;;;;;;5.03;4.70;;;22.20;70.20;;;;;;644192;220;26855;-73
2022/06/27 01:55:15;;;;;;;4.47;4.25;;;22.20;70.20;;;;;;650561;221;26498;-73
2022/06/27 01:57:42;;;;;;;4.30;4.10;;;22.20;70.30;;;;;;643896;221;26776;-73
2022/06/27 02:00:12;;;;;;;4.95;4.65;;;22.10;70.60;;;;;;640228;220;26514;-73
2022/06/27 02:02:38;;;;;;;4.40;4.10;;;22.10;70.60;;;;;;639676;224;27009;-73
2022/06/27 02:05:05;;;;;;;4.72;4.43;;;22.10;71.00;;;;;;638858;222;26561;-73
2022/06/27 02:07:32;;;;;;;4.57;4.28;;;22.00;71.10;;;;;;638766;221;26586;-73
2022/06/27 02:10:00;;;;;;;4.60;4.30;;;22.00;71.60;;;;;;643207;221;26833;-73
2022/06/27 02:12:28;;;;;;;4.28;4.03;;;22.00;72.00;;;;;;637694;224;26554;-73
2022/06/27 02:14:54;;;;;;;5.28;4.87;;;22.00;71.70;;;;;;646100;221;26760;-73
2022/06/27 02:17:22;;;;;;;5.47;5.07;;;22.00;72.00;;;;;;643532;221;26859;-73
2022/06/27 02:19:49;;;;;;;4.30;4.10;;;22.00;72.10;;;;;;642532;218;26586;-73
2022/06/27 02:22:16;;;;;;;4.47;4.18;;;22.00;72.20;;;;;;637800;225;27212;-73
2022/06/27 02:24:43;;;;;;;4.93;4.62;;;22.00;72.50;;;;;;638556;221;26486;-73
2022/06/27 02:27:12;;;;;;;4.85;4.55;;;22.00;72.50;;;;;;639426;221;26926;-73
2022/06/27 02:29:39;;;;;;;5.00;4.70;;;22.00;72.90;;;;;;638073;221;26815;-73
2022/06/27 02:32:08;;;;;;;5.07;4.68;;;21.90;73.20;;;;;;638802;225;26524;-73
2022/06/27 02:34:35;;;;;;;4.93;4.57;;;22.00;73.20;;;;;;638746;221;26552;-73
2022/06/27 02:37:04;;;;;;;5.30;4.85;;;21.90;73.40;;;;;;643076;221;27187;-73
2022/06/27 02:39:31;;;;;;;5.07;4.78;;;21.90;73.40;;;;;;650865;221;27099;-73
2022/06/27 02:41:58;;;;;;;4.90;4.50;;;21.90;73.70;;;;;;650780;221;26485;-73
2022/06/27 02:44:26;;;;;;;4.85;4.47;;;21.90;73.80;;;;;;650782;221;26785;-73
2022/06/27 02:46:53;;;;;;;4.80;4.50;;;21.90;74.10;;;;;;650647;221;26568;-73
2022/06/27 02:49:20;;;;;;;5.20;4.80;;;21.90;74.20;;;;;;641185;218;26827;-73
2022/06/27 02:51:50;;;;;;;5.30;4.90;;;21.90;74.40;;;;;;640720;221;26561;-72
2022/06/27 02:54:20;;;;;;;4.60;4.30;;;21.90;74.60;;;;;;642804;221;27226;-74
2022/06/27 02:56:47;;;;;;;4.85;4.55;;;21.90;74.60;;;;;;637642;224;26532;-72
2022/06/27 02:59:18;;;;;;;5.30;5.00;;;21.80;75.10;;;;;;638100;223;26601;-73
2022/06/27 03:01:45;;;;;;;5.37;4.97;;;21.80;75.10;;;;;;642642;219;26513;-73
2022/06/27 03:04:13;;;;;;;6.00;5.20;;;21.80;75.80;;;;;;640494;220;26605;-74
2022/06/27 03:06:42;;;;;;;7.25;5.40;;;21.80;75.80;;;;;;641441;221;26584;-69
2022/06/27 03:09:08;;;;;;;8.50;5.45;;;21.80;76.20;;;;;;648706;221;26604;-69
2022/06/27 03:11:35;;;;;;;5.32;4.85;;;21.80;76.20;;;;;;639822;221;26510;-69
2022/06/27 03:14:02;;;;;;;5.68;5.18;;;21.80;76.30;;;;;;637945;224;26761;-69
2022/06/27 03:16:30;;;;;;;5.93;5.43;;;21.80;77.20;;;;;;637831;225;26518;-69
2022/06/27 03:18:57;;;;;;;9.65;5.60;;;21.80;77.00;;;;;;637704;221;26808;-69
2022/06/27 03:21:24;;;;;;;6.20;5.60;;;21.80;76.70;;;;;;650895;220;26496;-69
2022/06/27 03:23:51;;;;;;;5.35;4.95;;;21.80;77.40;;;;;;650680;221;27158;-69
2022/06/27 03:26:18;;;;;;;5.57;5.18;;;21.80;77.10;;;;;;651164;221;26516;-69
2022/06/27 03:28:46;;;;;;;5.47;5.07;;;21.90;77.30;;;;;;651080;218;26798;-69
2022/06/27 03:31:13;;;;;;;6.70;5.18;;;21.90;77.60;;;;;;650825;221;26514;-69
2022/06/27 03:33:40;;;;;;;5.55;5.20;;;21.90;77.50;;;;;;647994;221;27204;-69
2022/06/27 03:36:07;;;;;;;6.18;5.72;;;21.90;77.80;;;;;;649911;221;26576;-69
2022/06/27 03:38:34;;;;;;;5.37;5.05;;;21.90;78.00;;;;;;650518;218;26555;-69
2022/06/27 03:41:02;;;;;;;6.15;5.65;;;21.90;77.90;;;;;;650864;221;26480;-69
2022/06/27 03:43:30;;;;;;;6.25;5.62;;;22.00;78.10;;;;;;650821;221;26531;-69
2022/06/27 03:45:58;;;;;;;6.10;5.50;;;22.00;78.10;;;;;;650783;221;26560;-69
2022/06/27 03:50:59;;;;;;;5.85;5.37;;;22.00;78.00;;;;;;650842;221;26575;-72
2022/06/27 03:53:27;;;;;;;5.75;5.32;;;22.00;78.30;;;;;;650781;221;26848;-71
2022/06/27 03:55:54;;;;;;;6.47;5.97;;;22.10;78.30;;;;;;650754;220;26581;-71
2022/06/27 03:58:21;;;;;;;6.22;5.82;;;22.10;78.10;;;;;;650780;221;26794;-71
2022/06/27 04:00:48;;;;;;;5.68;5.28;;;22.20;78.00;;;;;;650836;221;26616;-71
2022/06/27 04:03:15;;;;;;;5.95;5.55;;;22.20;78.10;;;;;;650870;221;26904;-71
2022/06/27 04:05:43;;;;;;;5.75;5.35;;;22.20;77.90;;;;;;650908;221;26560;-71
2022/06/27 04:08:11;;;;;;;6.43;5.93;;;22.30;78.00;;;;;;650864;221;26525;-71
2022/06/27 04:10:39;;;;;;;6.05;5.68;;;22.30;77.80;;;;;;652060;219;26577;-72
2022/06/27 04:13:07;;;;;;;6.28;5.87;;;22.30;77.80;;;;;;652186;220;26559;-71
2022/06/27 04:15:34;;;;;;;5.72;5.32;;;22.40;77.70;;;;;;651866;220;26529;-72
2022/06/27 04:18:02;;;;;;;6.07;5.68;;;22.50;77.50;;;;;;651744;221;26481;-72
2022/06/27 04:20:30;;;;;;;6.45;5.85;;;22.50;77.30;;;;;;651505;218;26555;-72
2022/06/27 04:22:58;;;;;;;5.87;5.47;;;22.50;77.30;;;;;;651415;221;26587;-72
2022/06/27 04:25:26;;;;;;;5.80;5.40;;;22.60;77.60;;;;;;651453;221;26587;-72
2022/06/27 04:27:53;;;;;;;5.70;5.20;;;22.60;77.10;;;;;;651310;221;26779;-72
2022/06/27 04:30:20;;;;;;;5.90;5.50;;;22.70;77.60;;;;;;651102;218;26572;-72
2022/06/27 04:32:48;;;;;;;6.62;6.03;;;22.70;76.50;;;;;;651077;221;26768;-72
2022/06/27 04:35:16;;;;;;;6.05;5.55;;;22.90;76.30;;;;;;651100;220;26512;-72
2022/06/27 04:37:44;;;;;;;5.45;5.05;;;22.80;76.20;;;;;;651043;221;26503;-72
2022/06/27 04:40:11;;;;;;;5.75;5.35;;;22.90;76.00;;;;;;651086;221;26535;-72
2022/06/27 04:42:38;;;;;;;5.85;5.53;;;23.00;75.80;;;;;;651487;221;26488;-72
2022/06/27 04:45:11;;;;;;;5.87;5.47;;;23.00;75.40;;;;;;651444;221;26493;-72
2022/06/27 04:47:33;;;;;;;5.37;4.97;;;23.10;75.30;;;;;;650669;221;26485;-72
2022/06/27 04:50:02;;;;;;;6.07;5.68;;;23.30;74.80;;;;;;651190;221;26529;-72
2022/06/27 04:52:29;;;;;;;5.97;5.53;;;23.30;74.40;;;;;;651131;221;26532;-72
2022/06/27 04:54:56;;;;;;;5.25;4.95;;;23.30;74.40;;;;;;650926;221;26576;-72
2022/06/27 04:57:23;;;;;;;5.57;5.25;;;23.40;74.20;;;;;;650752;220;26549;-72
2022/06/27 04:59:50;;;;;;;6.10;5.70;;;23.50;73.90;;;;;;650766;221;26823;-72
2022/06/27 05:02:18;;;;;;;5.85;5.40;;;23.60;73.30;;;;;;650775;221;26555;-72
2022/06/27 05:04:45;;;;;;;5.72;5.32;;;23.70;73.30;;;;;;647906;221;26903;-73
2022/06/27 05:07:12;;;;;;;6.20;5.62;;;23.80;73.40;;;;;;638714;221;26536;-72
2022/06/27 05:09:39;;;;;;;5.47;5.18;;;23.80;72.90;;;;;;638572;222;26796;-72
2022/06/27 05:12:06;;;;;;;5.78;5.37;;;23.90;72.70;;;;;;638609;223;26520;-72
2022/06/27 05:14:34;;;;;;;5.78;5.28;;;24.00;72.50;;;;;;637828;225;26795;-72
2022/06/27 05:17:01;;;;;;;5.78;5.37;;;24.10;72.30;;;;;;637453;224;26575;-72
2022/06/27 05:19:28;;;;;;;5.28;4.87;;;24.20;72.10;;;;;;637408;224;26610;-72
2022/06/27 05:21:56;;;;;;;5.43;5.03;;;24.30;71.40;;;;;;638491;223;26558;-72
2022/06/27 05:24:24;;;;;;;5.93;5.53;;;24.40;71.10;;;;;;638848;223;26515;-72
2022/06/27 05:26:53;;;;;;;5.78;5.32;;;24.50;70.40;;;;;;638554;224;26512;-72
2022/06/27 05:29:20;;;;;;;5.95;5.60;;;24.60;70.30;;;;;;638331;224;26619;-72
2022/06/27 05:31:47;;;;;;;5.05;4.75;;;24.60;70.30;;;;;;638117;225;26773;-72
2022/06/27 05:34:14;;;;;;;5.53;5.10;;;24.70;70.30;;;;;;638111;224;26535;-72
2022/06/27 05:36:42;;;;;;;5.70;5.30;;;24.70;70.60;;;;;;638072;224;27213;-72
2022/06/27 05:39:09;;;;;;;5.80;5.30;;;24.80;69.40;;;;;;637969;224;26556;-72
2022/06/27 05:41:37;;;;;;;5.20;4.90;;;25.00;69.30;;;;;;637750;224;26805;-72
2022/06/27 05:44:04;;;;;;;5.35;5.05;;;25.00;68.80;;;;;;637726;224;26737;-72
2022/06/27 05:46:32;;;;;;;5.30;4.90;;;25.20;68.60;;;;;;637622;225;26866;-73
2022/06/27 05:49:00;;;;;;;5.28;4.90;;;25.20;68.10;;;;;;637699;223;26579;-72
2022/06/27 05:51:28;;;;;;;4.47;4.20;;;25.30;67.70;;;;;;637703;224;26531;-73
2022/06/27 05:53:56;;;;;;;4.82;4.40;;;25.50;67.70;;;;;;637525;224;26800;-73
2022/06/27 05:56:22;;;;;;;5.20;4.90;;;25.60;67.30;;;;;;637912;225;26540;-72
2022/06/27 05:58:49;;;;;;;4.80;4.50;;;25.60;66.80;;;;;;637657;224;27397;-71
2022/06/27 06:01:15;;;;;;;5.10;4.78;;;25.70;66.80;;;;;;637337;225;26563;-72
2022/06/27 06:03:43;;;;;;;4.62;4.32;;;25.90;66.50;;;;;;638080;221;26761;-72
2022/06/27 06:06:10;;;;;;;4.28;4.05;;;26.00;65.90;;;;;;638472;224;26524;-72
2022/06/27 06:08:37;;;;;;;4.70;4.40;;;26.10;65.60;;;;;;638484;223;26913;-72
2022/06/27 06:11:05;;;;;;;4.47;4.18;;;26.30;65.00;;;;;;638566;225;26507;-72
2022/06/27 06:13:34;;;;;;;4.70;4.40;;;26.40;64.60;;;;;;638548;224;26500;-72
2022/06/27 06:16:01;;;;;;;4.40;4.20;;;26.50;64.30;;;;;;638461;224;26507;-73
2022/06/27 06:18:32;;;;;;;4.35;4.15;;;26.50;63.90;;;;;;638455;224;26532;-73
2022/06/27 06:20:57;;;;;;;5.07;4.68;;;26.50;63.90;;;;;;638420;224;26535;-74
2022/06/27 06:23:25;;;;;;;5.10;4.80;;;26.70;63.10;;;;;;638584;224;26472;-74
2022/06/27 06:25:53;;;;;;;5.05;4.70;;;26.80;62.60;;;;;;638522;225;26487;-73
2022/06/27 06:28:21;;;;;;;5.37;5.00;;;26.90;62.20;;;;;;638670;225;26531;-73
2022/06/27 06:30:49;;;;;;;4.72;4.43;;;27.00;61.70;;;;;;638518;223;26600;-73
2022/06/27 06:33:17;;;;;;;4.70;4.47;;;27.10;61.20;;;;;;639424;223;26512;-74
2022/06/27 06:35:45;;;;;;;4.85;4.55;;;27.20;60.70;;;;;;640171;223;26514;-74
2022/06/27 06:38:13;;;;;;;5.18;4.87;;;27.30;60.60;;;;;;639618;223;26594;-74
2022/06/27 06:40:40;;;;;;;4.90;4.60;;;27.30;60.40;;;;;;639485;222;26571;-74
2022/06/27 06:43:08;;;;;;;5.47;5.07;;;27.40;59.90;;;;;;639289;225;26550;-73
2022/06/27 06:45:35;;;;;;;5.40;4.95;;;27.50;59.70;;;;;;639190;225;26578;-72
2022/06/27 06:48:03;;;;;;;5.47;5.05;;;27.70;59.60;;;;;;639108;225;26591;-73
2022/06/27 06:50:30;;;;;;;5.22;4.93;;;27.80;59.40;;;;;;639132;223;26587;-72
2022/06/27 06:52:58;;;;;;;5.03;4.72;;;27.90;58.90;;;;;;638864;223;26850;-73
2022/06/27 06:55:26;;;;;;;4.90;4.60;;;28.00;58.70;;;;;;638762;222;26570;-73
2022/06/27 06:57:54;;;;;;;5.32;5.03;;;28.00;58.20;;;;;;639740;221;26558;-73
2022/06/27 07:00:20;;;;;;;5.05;4.65;;;28.10;57.90;;;;;;637988;224;26589;-74
2022/06/27 07:02:48;;;;;;;5.20;4.87;;;28.30;57.60;;;;;;644143;221;26524;-73
2022/06/27 07:05:14;;;;;;;5.43;5.07;;;28.40;57.10;;;;;;649167;221;26496;-73
2022/06/27 07:07:42;;;;;;;5.18;4.82;;;28.50;56.70;;;;;;649030;221;26479;-73
2022/06/27 07:10:11;;;;;;;5.10;4.78;;;28.70;56.20;;;;;;637788;222;26512;-72
2022/06/27 07:12:38;;;;;;;5.10;4.80;;;28.90;56.10;;;;;;645240;221;26508;-73
2022/06/27 07:15:09;;;;;;;4.95;4.65;;;28.90;56.10;;;;;;641042;221;26475;-72
2022/06/27 07:17:40;;;;;;;5.62;5.22;;;28.90;56.00;;;;;;638431;225;26790;-72
2022/06/27 07:20:08;;;;;;;5.30;4.90;;;29.00;55.80;;;;;;637467;223;26551;-72
2022/06/27 07:22:35;;;;;;;4.97;4.68;;;29.10;56.10;;;;;;638025;222;26527;-72
2022/06/27 07:25:02;;;;;;;5.00;4.70;;;29.30;55.70;;;;;;647217;221;26569;-72
2022/06/27 07:27:31;;;;;;;5.05;4.75;;;29.30;55.20;;;;;;640502;221;26800;-71
2022/06/27 07:29:57;;;;;;;5.37;5.07;;;29.40;55.20;;;;;;643620;223;26607;-71
2022/06/27 07:32:26;;;;;;;4.90;4.30;;;29.50;54.90;;;;;;638169;224;26820;-71
2022/06/27 07:34:54;;;;;;;4.93;4.62;;;29.70;55.00;;;;;;643650;223;26571;-70
2022/06/27 07:37:21;;;;;;;4.82;4.53;;;29.70;54.80;;;;;;649553;221;26568;-71
2022/06/27 07:39:49;;;;;;;5.12;4.65;;;29.80;54.50;;;;;;637454;221;26580;-71
2022/06/27 07:42:17;;;;;;;4.87;4.57;;;29.80;54.20;;;;;;637972;225;26568;-67
2022/06/27 07:44:44;;;;;;;5.22;4.87;;;29.80;54.20;;;;;;644081;220;26572;-71
2022/06/27 07:47:12;;;;;;;5.15;4.72;;;29.90;54.00;;;;;;651436;220;26778;-71
2022/06/27 07:49:39;;;;;;;4.55;4.25;;;29.90;53.80;;;;;;639008;220;26536;-70
2022/06/27 07:52:06;;;;;;;4.75;4.45;;;30.00;53.50;;;;;;642545;222;26526;-70
2022/06/27 07:54:33;;;;;;;4.85;4.55;;;30.10;53.20;;;;;;642875;222;26562;-70
2022/06/27 07:57:02;;;;;;;4.20;3.83;;;30.10;52.70;;;;;;648042;221;26525;-70
2022/06/27 07:59:29;;;;;;;4.55;4.25;;;30.20;52.20;;;;;;640279;221;26538;-70
2022/06/27 08:01:57;;;;;;;4.37;4.12;;;30.30;52.40;;;;;;647681;221;26547;-70
2022/06/27 08:04:25;;;;;;;4.10;3.85;;;30.40;52.00;;;;;;638391;224;26612;-70
2022/06/27 08:06:53;;;;;;;4.45;4.15;;;30.30;51.90;;;;;;638967;224;26556;-69
2022/06/27 08:09:20;;;;;;;4.72;4.43;;;30.40;51.70;;;;;;639278;222;26508;-70
2022/06/27 08:11:46;;;;;;;4.12;3.80;;;30.40;51.40;;;;;;644497;222;27216;-70
2022/06/27 08:14:17;;;;;;;4.10;3.70;;;30.60;50.30;;;;;;638121;225;26580;-70
2022/06/27 08:16:43;;;;;;;3.90;3.70;;;30.60;50.10;;;;;;646041;221;26571;-70
2022/06/27 08:19:10;;;;;;;3.80;3.50;;;30.60;49.90;;;;;;640512;221;26850;-70
2022/06/27 08:21:37;;;;;;;4.07;3.60;;;30.70;49.30;;;;;;638555;224;26527;-71
2022/06/27 08:24:05;;;;;;;3.45;3.25;;;30.70;49.40;;;;;;642599;221;27021;-71
2022/06/27 08:26:32;;;;;;;3.90;3.70;;;30.80;48.60;;;;;;643658;221;26567;-72
2022/06/27 08:29:00;;;;;;;3.83;3.62;;;30.70;48.30;;;;;;638427;224;26824;-69
2022/06/27 08:31:27;;;;;;;3.35;3.15;;;30.80;48.10;;;;;;639530;221;26507;-69
2022/06/27 08:33:58;;;;;;;3.70;3.50;;;30.80;48.10;;;;;;647508;221;26581;-69
2022/06/27 08:36:23;;;;;;;3.37;3.17;;;30.80;47.40;;;;;;638407;224;26508;-69
2022/06/27 08:38:52;;;;;;;3.40;3.20;;;30.90;47.70;;;;;;638732;224;26559;-70
2022/06/27 08:41:19;;;;;;;3.53;3.22;;;30.90;48.00;;;;;;637460;224;26508;-70
2022/06/27 08:43:48;;;;;;;3.58;3.35;;;31.00;48.00;;;;;;637549;225;26503;-70
2022/06/27 08:46:16;;;;;;;3.20;3.10;;;31.00;47.60;;;;;;638559;224;26576;-70
2022/06/27 08:48:45;;;;;;;3.22;3.03;;;31.00;47.50;;;;;;638533;223;26559;-69
2022/06/27 08:51:12;;;;;;;2.87;2.70;;;31.00;47.50;;;;;;637700;221;26553;-69
2022/06/27 08:53:38;;;;;;;2.78;2.67;;;31.00;47.30;;;;;;637564;224;26519;-69
2022/06/27 08:56:09;;;;;;;2.70;2.60;;;31.10;48.60;;;;;;643528;218;26580;-69
2022/06/27 08:58:33;;;;;;;3.00;2.90;;;31.10;48.20;;;;;;651413;220;26533;-69
2022/06/27 09:01:00;;;;;;;3.05;2.85;;;31.10;48.40;;;;;;642591;220;26537;-69
2022/06/27 09:03:29;;;;;;;2.58;2.47;;;31.10;48.30;;;;;;649924;220;26775;-71
2022/06/27 09:05:57;;;;;;;2.83;2.62;;;31.10;49.10;;;;;;639830;224;26537;-70
2022/06/27 09:08:26;;;;;;;2.95;2.75;;;31.20;48.80;;;;;;639073;224;26479;-70
2022/06/27 09:10:53;;;;;;;2.60;2.50;;;31.30;47.60;;;;;;639278;224;26578;-70
2022/06/27 09:13:21;;;;;;;2.60;2.50;;;31.20;47.30;;;;;;639581;221;26573;-71
2022/06/27 09:15:56;;;;;;;2.60;2.50;;;31.20;47.60;;;;;;649379;221;26476;-71
2022/06/27 09:18:25;;;;;;;3.00;2.80;;;31.20;47.60;;;;;;638702;222;26556;-71
2022/06/27 09:20:53;;;;;;;2.72;2.58;;;31.20;47.30;;;;;;638758;224;26587;-70
2022/06/27 09:23:29;;;;;;;2.72;2.62;;;31.20;47.50;;;;;;639082;225;26535;-71
2022/06/27 09:26:00;;;;;;;2.60;2.40;;;31.20;47.80;;;;;;641381;221;27120;-70
2022/06/27 09:28:48;;;;;;;2.25;2.15;;;31.20;47.60;;;;;;650990;221;26516;-70
2022/06/27 09:31:30;;;;;;;2.08;2.03;;;31.20;47.40;;;;;;638555;221;26851;-70
2022/06/27 09:34:03;;;;;;;2.50;2.40;;;31.20;47.60;;;;;;639579;221;26518;-71
2022/06/27 09:36:31;;;;;;;2.80;2.70;;;31.20;48.10;;;;;;648619;221;26567;-71
2022/06/27 09:39:01;;;;;;;2.40;2.30;;;31.30;46.80;;;;;;637485;225;26542;-71
2022/06/27 09:41:26;;;;;;;2.62;2.53;;;31.20;46.80;;;;;;644136;221;26601;-70
2022/06/27 09:43:54;;;;;;;2.37;2.28;;;31.40;45.90;;;;;;650809;221;26599;-71
2022/06/27 09:46:24;;;;;;;2.30;2.20;;;31.30;45.80;;;;;;639872;221;26553;-70
2022/06/27 09:48:49;;;;;;;2.03;2.03;;;31.40;45.50;;;;;;639421;221;26509;-71
2022/06/27 09:51:16;;;;;;;2.22;2.10;;;31.40;46.20;;;;;;649351;221;26756;-71
2022/06/27 09:53:47;;;;;;;2.15;2.05;;;31.40;47.30;;;;;;638693;225;26568;-71
2022/06/27 09:56:13;;;;;;;1.90;1.90;;;31.30;46.90;;;;;;644064;223;26551;-71
2022/06/27 09:58:39;;;;;;;2.03;1.92;;;31.30;46.50;;;;;;650263;221;26568;-72
2022/06/27 10:01:06;;;;;;;2.00;1.90;;;31.30;46.20;;;;;;650184;221;26573;-70
2022/06/27 10:03:35;;;;;;;1.90;1.80;;;31.30;45.70;;;;;;644263;221;26761;-70
2022/06/27 10:06:02;;;;;;;2.33;2.22;;;31.30;45.70;;;;;;638299;225;26534;-70
2022/06/27 10:08:33;;;;;;;2.08;1.98;;;31.30;45.90;;;;;;639627;223;26795;-70
2022/06/27 10:11:06;;;;;;;2.15;2.05;;;31.40;44.80;;;;;;638338;224;26794;-70
2022/06/27 10:13:34;;;;;;;2.25;2.15;;;31.40;45.30;;;;;;639174;222;26896;-71
2022/06/27 10:16:05;;;;;;;1.87;1.87;;;31.50;44.40;;;;;;638585;224;26551;-71
2022/06/27 10:18:51;;;;;;;1.95;1.90;;;31.60;43.60;;;;;;639779;224;26736;-71
2022/06/27 10:21:25;;;;;;;85.82;21.17;;;31.60;43.10;;;;;;638284;224;26970;-71
2022/06/27 10:23:52;;;;;;;107.00;25.17;;;31.60;43.50;;;;;;639205;224;27196;-71
2022/06/27 10:26:29;;;;;;;22.25;6.95;;;31.80;43.60;;;;;;637389;223;26587;-73
2022/06/27 10:28:58;;;;;;;19.27;5.55;;;31.80;43.20;;;;;;647297;221;26519;-71
2022/06/27 10:31:25;;;;;;;1.87;1.77;;;31.90;43.50;;;;;;635019;225;26807;-70
2022/06/27 10:33:52;;;;;;;3.92;2.12;;;31.90;43.50;;;;;;635262;224;26798;-70
2022/06/27 10:36:21;;;;;;;1.40;1.40;;;31.90;43.60;;;;;;638885;224;26586;-70
2022/06/27 10:38:47;;;;;;;1.90;1.80;;;31.90;43.80;;;;;;637970;221;26791;-69
2022/06/27 10:41:35;;;;;;;4.07;2.17;;;32.00;43.90;;;;;;637381;225;26567;-69
2022/06/27 10:44:03;;;;;;;1.65;1.65;;;32.00;43.30;;;;;;636918;223;26537;-69
2022/06/27 10:46:45;;;;;;;2.00;1.90;;;32.00;43.20;;;;;;637189;224;26587;-69
2022/06/27 10:49:17;;;;;;;1.45;1.45;;;32.10;42.10;;;;;;637078;226;26552;-69
2022/06/27 10:51:44;;;;;;;1.80;1.70;;;32.10;42.00;;;;;;637355;225;26753;-69
2022/06/27 10:54:11;;;;;;;1.75;1.65;;;32.10;42.10;;;;;;637346;224;26520;-69
2022/06/27 10:56:40;;;;;;;1.80;1.80;;;32.20;40.80;;;;;;637364;224;26737;-69
2022/06/27 10:59:44;;;;;;;2.10;2.00;;;32.20;41.20;;;;;;637515;225;26508;-69
2022/06/27 11:02:11;;;;;;;1.65;1.60;;;32.20;41.10;;;;;;634020;225;26488;-69
2022/06/27 11:04:38;;;;;;;2.10;1.90;;;32.30;41.60;;;;;;637469;224;26484;-69
2022/06/27 11:07:06;;;;;;;1.75;1.65;;;32.40;42.10;;;;;;637743;226;26492;-69
2022/06/27 11:09:36;;;;;;;1.73;1.70;;;32.50;40.80;;;;;;637286;225;26773;-69
2022/06/27 11:12:07;;;;;;;2.28;1.80;;;32.60;41.30;;;;;;637369;226;26515;-69
2022/06/27 11:14:45;;;;;;;4.10;3.45;;;32.50;41.30;;;;;;637329;226;26535;-69
2022/06/27 11:17:23;;;;;;;1.80;1.70;;;32.60;41.20;;;;;;637268;225;26521;-69
2022/06/27 11:22:23;;;;;;;1.90;1.80;;;32.70;41.30;;;;;;637054;224;26540;-69
2022/06/27 11:24:51;;;;;;;3.08;2.87;;;32.80;41.00;;;;;;638412;225;26576;-69
2022/06/27 11:27:19;;;;;;;2.00;1.90;;;33.00;41.20;;;;;;638274;224;26776;-69
2022/06/27 11:32:22;;;;;;;1.67;1.58;;;33.30;40.60;;;;;;637955;224;26499;-69
2022/06/27 11:34:49;;;;;;;1.85;1.75;;;33.50;40.30;;;;;;637974;225;26519;-69
2022/06/27 11:37:17;;;;;;;2.37;2.20;;;33.80;39.90;;;;;;637783;225;26544;-69
2022/06/27 11:39:58;;;;;;;1.55;1.55;;;33.90;39.60;;;;;;637605;225;26581;-69
2022/06/27 11:42:28;;;;;;;1.50;1.50;;;33.90;39.00;;;;;;637649;225;26530;-69
2022/06/27 11:45:08;;;;;;;1.23;1.23;;;33.90;39.00;;;;;;637639;225;26909;-69
2022/06/27 11:47:35;;;;;;;1.45;1.45;;;34.10;39.50;;;;;;637292;225;26572;-69
2022/06/27 11:50:03;;;;;;;1.62;1.55;;;34.20;39.30;;;;;;637656;223;26809;-69
2022/06/27 11:52:38;;;;;;;1.65;1.60;;;34.30;39.30;;;;;;637636;225;26570;-68
2022/06/27 11:55:06;;;;;;;1.48;1.48;;;34.30;39.00;;;;;;637513;225;26583;-68
2022/06/27 11:57:33;;;;;;;1.50;1.50;;;34.40;38.90;;;;;;637327;225;26608;-69
2022/06/27 12:00:01;;;;;;;1.58;1.48;;;34.50;38.70;;;;;;637324;225;26543;-69
2022/06/27 12:02:31;;;;;;;1.92;1.83;;;34.50;38.70;;;;;;637186;226;26508;-69
2022/06/27 12:05:07;;;;;;;1.42;1.42;;;34.60;38.20;;;;;;637309;226;26766;-69
2022/06/27 12:07:46;;;;;;;1.58;1.48;;;34.60;37.90;;;;;;637314;226;26516;-69
2022/06/27 12:10:14;;;;;;;1.55;1.55;;;34.70;38.40;;;;;;637333;226;26538;-69
2022/06/27 12:12:41;;;;;;;1.60;1.58;;;34.70;37.60;;;;;;637314;225;26520;-69
2022/06/27 12:15:08;;;;;;;3.10;2.90;;;35.00;37.20;;;;;;637247;225;26755;-69
2022/06/27 12:17:37;;;;;;;1.60;1.55;;;35.50;36.80;;;;;;636104;225;26488;-69
2022/06/27 12:20:08;;;;;;;1.45;1.37;;;35.80;36.60;;;;;;637708;225;26512;-69
2022/06/27 12:22:32;;;;;;;1.60;1.50;;;35.80;35.90;;;;;;637507;225;26488;-69
2022/06/27 12:24:59;;;;;;;2.00;1.90;;;35.70;35.80;;;;;;638283;221;26490;-69
2022/06/27 12:27:27;;;;;;;1.10;1.10;;;35.70;36.40;;;;;;638987;223;26586;-69
2022/06/27 12:29:55;;;;;;;1.10;1.10;;;36.00;36.10;;;;;;640433;221;26888;-69
2022/06/27 12:32:21;;;;;;;1.10;1.10;;;36.00;36.40;;;;;;652424;219;26556;-69
2022/06/27 12:34:49;;;;;;;1.45;1.20;;;36.20;36.30;;;;;;652087;218;27271;-69
2022/06/27 12:37:15;;;;;;;1.35;1.35;;;36.30;36.20;;;;;;651692;221;26465;-69
2022/06/27 12:39:43;;;;;;;1.30;1.30;;;36.70;36.80;;;;;;651719;221;26772;-69
2022/06/27 12:42:10;;;;;;;1.15;1.15;;;36.90;36.00;;;;;;649156;219;26524;-70
2022/06/27 12:44:38;;;;;;;1.77;1.67;;;37.30;35.30;;;;;;639242;224;26842;-70
2022/06/27 12:47:05;;;;;;;1.60;1.50;;;37.60;34.60;;;;;;639299;224;26551;-69
2022/06/27 12:49:32;;;;;;;1.10;1.10;;;38.30;36.10;;;;;;638389;221;26527;-69
2022/06/27 12:51:59;;;;;;;1.15;1.15;;;38.60;34.00;;;;;;640220;221;26803;-69
2022/06/27 12:54:26;;;;;;;1.10;1.10;;;38.50;34.60;;;;;;640297;221;26549;-70
2022/06/27 12:56:54;;;;;;;2.75;2.55;;;38.80;33.40;;;;;;642413;221;26925;-70
2022/06/27 12:59:22;;;;;;;1.15;1.15;;;39.80;32.60;;;;;;644214;221;26527;-69